Time;durP1;ratioP1;P1;durP2;ratioP2;P2;SDS_P1;SDS_P2;PMS_P1;PMS_P2;Temp;Humidity;BMP_temperature;BMP_pressure;BME280_temperature;BME280_humidity;BME280_pressure;Samples;Min_cycle;Max_cycle;Signal;HPM_P1;HPM_P2
2022/06/11 00:00:39;;;;;;;7.80;7.10;;;;;;100985.05;;;;108289;1268;22539;-39
2022/06/11 00:03:06;;;;;;;8.20;6.60;;;;;;100987.16;;;;108356;1265;22533;-39
2022/06/11 00:05:34;;;;;;;7.50;6.70;;;;;;100987.92;;;;108344;1268;22545;-38
2022/06/11 00:08:01;;;;;;;8.00;6.80;;;;;;100992.05;;;;108346;1268;22610;-37
2022/06/11 00:10:28;;;;;;;7.00;6.30;;;;;;100998.60;;;;108312;1266;22638;-38
2022/06/11 00:12:56;;;;;;;7.40;6.70;;;;;;100998.52;;;;108329;1268;22538;-38
2022/06/11 00:15:23;;;;;;;7.60;6.90;;;;;;100996.05;;;;108295;1261;22496;-38
2022/06/11 00:17:52;;;;;;;7.90;7.10;;;;;;100997.40;;;;108310;1268;22980;-38
2022/06/11 00:20:20;;;;;;;7.50;6.70;;;;;;100998.50;;;;108353;1261;23859;-38
2022/06/11 00:22:47;;;;;;;7.40;6.70;;;;;;100998.22;;;;108306;1261;22547;-39
2022/06/11 00:25:14;;;;;;;8.20;6.20;;;;;;100999.05;;;;108325;1261;22801;-38
2022/06/11 00:27:42;;;;;;;7.10;6.10;;;;;;100999.36;;;;108293;1272;22620;-38
2022/06/11 00:30:11;;;;;;;6.60;5.90;;;;;;101000.23;;;;108325;1268;22534;-38
2022/06/11 00:32:39;;;;;;;6.90;6.20;;;;;;101001.16;;;;108354;1261;22813;-38
2022/06/11 00:35:06;;;;;;;7.10;6.30;;;;;;101002.95;;;;108331;1261;22930;-38
2022/06/11 00:37:34;;;;;;;6.50;5.80;;;;;;101006.98;;;;108329;1266;22746;-38
2022/06/11 00:40:01;;;;;;;7.20;6.40;;;;;;101011.86;;;;108319;1272;22586;-38
2022/06/11 00:42:28;;;;;;;6.80;6.10;;;;;;101014.89;;;;108318;1261;22840;-38
2022/06/11 00:44:56;;;;;;;6.20;5.60;;;;;;101015.75;;;;108314;1265;23008;-38
2022/06/11 00:47:25;;;;;;;6.80;6.10;;;;;;101017.69;;;;108351;1268;22649;-37
2022/06/11 00:49:52;;;;;;;8.10;6.00;;;;;;101015.45;;;;108327;1265;22490;-38
2022/06/11 00:52:20;;;;;;;6.30;5.70;;;;;;101017.48;;;;108320;1268;25227;-38
2022/06/11 00:54:47;;;;;;;6.50;5.80;;;;;;101019.97;;;;108283;1266;22543;-38
2022/06/11 00:57:15;;;;;;;6.80;6.10;;;;;;101016.58;;;;108301;1265;23872;-38
2022/06/11 00:59:42;;;;;;;7.10;6.00;;;;;;101014.20;;;;108325;1265;22563;-38
2022/06/11 01:02:09;;;;;;;6.60;5.90;;;;;;101014.74;;;;108329;1265;22595;-38
2022/06/11 01:04:37;;;;;;;8.00;5.60;;;;;;101014.05;;;;108302;1272;22516;-38
2022/06/11 01:07:04;;;;;;;6.40;5.80;;;;;;101017.98;;;;108309;1261;22987;-38
2022/06/11 01:09:32;;;;;;;6.40;5.40;;;;;;101015.59;;;;108314;1261;22635;-38
2022/06/11 01:11:59;;;;;;;5.60;5.00;;;;;;101018.96;;;;108316;1268;22525;-38
2022/06/11 01:14:26;;;;;;;5.90;5.30;;;;;;101021.28;;;;108278;1261;23043;-38
2022/06/11 01:16:54;;;;;;;7.00;5.70;;;;;;101019.53;;;;108264;1271;22605;-36
2022/06/11 01:19:21;;;;;;;6.40;5.80;;;;;;101015.31;;;;108337;1268;22861;-37
2022/06/11 01:21:49;;;;;;;5.90;5.10;;;;;;101010.63;;;;108337;1268;24384;-36
2022/06/11 01:24:16;;;;;;;6.40;5.30;;;;;;101003.19;;;;108326;1260;22884;-36
2022/06/11 01:26:43;;;;;;;5.60;5.00;;;;;;100996.70;;;;108314;1265;22612;-37
2022/06/11 01:29:11;;;;;;;5.50;4.90;;;;;;101000.97;;;;108293;1268;24382;-37
2022/06/11 01:31:38;;;;;;;5.70;5.10;;;;;;100999.44;;;;108318;1269;22535;-36
2022/06/11 01:34:06;;;;;;;6.50;5.20;;;;;;100992.23;;;;108314;1261;22611;-37
2022/06/11 01:36:33;;;;;;;7.30;5.00;;;;;;100995.02;;;;108334;1268;24008;-37
2022/06/11 01:39:01;;;;;;;6.50;5.00;;;;;;100992.80;;;;108317;1265;22488;-37
2022/06/11 01:41:28;;;;;;;5.80;5.20;;;;;;100995.42;;;;108332;1268;22652;-37
2022/06/11 01:43:56;;;;;;;5.70;5.10;;;;;;100998.45;;;;108321;1268;22775;-37
2022/06/11 01:46:23;;;;;;;6.00;5.20;;;;;;100997.61;;;;108328;1265;24187;-37
2022/06/11 01:48:51;;;;;;;6.40;5.20;;;;;;100998.32;;;;108336;1268;22548;-37
2022/06/11 01:51:18;;;;;;;5.90;4.80;;;;;;100993.77;;;;108322;1261;23737;-37
2022/06/11 01:53:46;;;;;;;5.50;4.40;;;;;;100991.89;;;;108306;1265;22518;-37
2022/06/11 01:56:14;;;;;;;5.40;4.30;;;;;;100992.33;;;;108322;1265;22480;-38
2022/06/11 01:58:41;;;;;;;5.80;5.20;;;;;;100993.61;;;;108320;1264;25453;-37
2022/06/11 02:01:11;;;;;;;6.70;5.00;;;;;;100988.06;;;;108338;1268;22602;-37
2022/06/11 02:03:39;;;;;;;6.70;4.90;;;;;;100988.02;;;;108315;1268;22945;-37
2022/06/11 02:06:06;;;;;;;5.70;4.70;;;;;;100989.30;;;;108324;1269;22742;-37
2022/06/11 02:08:33;;;;;;;6.50;4.80;;;;;;100989.71;;;;108323;1268;23915;-37
2022/06/11 02:11:01;;;;;;;5.70;4.90;;;;;;100991.49;;;;108256;1268;22540;-37
2022/06/11 02:13:28;;;;;;;6.40;4.70;;;;;;100994.61;;;;108270;1273;22757;-37
2022/06/11 02:15:56;;;;;;;5.90;4.70;;;;;;100997.77;;;;108311;1269;25200;-37
2022/06/11 02:18:23;;;;;;;5.80;4.80;;;;;;100998.27;;;;108318;1269;22559;-37
2022/06/11 02:20:51;;;;;;;5.50;5.00;;;;;;100998.53;;;;108307;1269;22815;-37
2022/06/11 02:23:18;;;;;;;6.20;5.00;;;;;;100996.06;;;;108331;1269;22602;-37
2022/06/11 02:25:46;;;;;;;5.50;4.50;;;;;;100996.20;;;;108301;1262;23033;-37
2022/06/11 02:28:13;;;;;;;7.30;5.60;;;;;;100993.50;;;;108327;1262;25378;-37
2022/06/11 02:30:41;;;;;;;5.10;4.60;;;;;;100994.73;;;;108312;1269;22581;-37
2022/06/11 02:33:09;;;;;;;5.60;5.00;;;;;;100992.35;;;;108312;1266;22538;-37
2022/06/11 02:35:37;;;;;;;5.80;4.90;;;;;;100994.17;;;;108333;1269;23932;-37
2022/06/11 02:38:04;;;;;;;5.70;4.90;;;;;;100995.31;;;;108285;1262;22583;-37
2022/06/11 02:40:32;;;;;;;6.80;5.00;;;;;;100996.52;;;;108290;1267;22644;-37
2022/06/11 02:42:59;;;;;;;7.20;5.80;;;;;;100998.48;;;;108292;1268;22549;-37
2022/06/11 02:45:27;;;;;;;7.00;5.30;;;;;;100999.71;;;;108306;1262;24233;-37
2022/06/11 02:47:54;;;;;;;5.50;4.90;;;;;;101001.77;;;;108278;1265;22605;-37
2022/06/11 02:50:22;;;;;;;6.00;5.10;;;;;;101000.10;;;;108313;1262;22932;-37
2022/06/11 02:52:49;;;;;;;5.90;5.10;;;;;;100999.20;;;;108314;1267;22488;-37
2022/06/11 02:55:18;;;;;;;5.70;5.10;;;;;;101000.36;;;;108344;1269;22563;-37
2022/06/11 02:57:45;;;;;;;5.70;4.90;;;;;;101003.68;;;;108303;1269;22649;-37
2022/06/11 03:00:12;;;;;;;5.90;4.50;;;;;;101003.77;;;;108332;1269;24247;-36
2022/06/11 03:02:40;;;;;;;5.80;5.00;;;;;;101005.56;;;;108305;1262;25276;-37
2022/06/11 03:05:07;;;;;;;6.10;4.80;;;;;;101005.92;;;;108309;1274;22538;-37
2022/06/11 03:07:35;;;;;;;5.90;4.50;;;;;;101001.36;;;;108305;1262;22605;-37
2022/06/11 03:10:03;;;;;;;6.30;4.70;;;;;;101003.00;;;;108272;1269;22618;-37
2022/06/11 03:12:30;;;;;;;5.90;5.30;;;;;;101002.19;;;;108303;1269;22603;-37
2022/06/11 03:14:58;;;;;;;6.30;4.80;;;;;;101005.08;;;;108307;1269;22554;-37
2022/06/11 03:17:25;;;;;;;5.30;4.80;;;;;;101005.18;;;;108298;1269;23923;-37
2022/06/11 03:19:52;;;;;;;6.10;4.70;;;;;;101007.46;;;;108329;1269;24300;-37
2022/06/11 03:22:20;;;;;;;6.00;5.00;;;;;;101008.27;;;;108312;1269;22545;-37
2022/06/11 03:24:47;;;;;;;6.00;4.70;;;;;;101006.52;;;;108295;1269;23834;-37
2022/06/11 03:27:15;;;;;;;5.30;4.60;;;;;;101006.29;;;;108310;1269;23926;-37
2022/06/11 03:29:43;;;;;;;5.90;4.70;;;;;;101000.13;;;;108315;1269;22792;-37
2022/06/11 03:32:10;;;;;;;6.30;4.80;;;;;;100999.61;;;;108280;1262;23035;-37
2022/06/11 03:34:38;;;;;;;5.80;5.00;;;;;;101001.56;;;;108318;1262;23928;-36
2022/06/11 03:37:05;;;;;;;5.90;4.80;;;;;;101001.76;;;;108273;1269;22551;-36
2022/06/11 03:39:33;;;;;;;6.90;5.00;;;;;;101003.52;;;;108321;1262;22609;-36
2022/06/11 03:42:00;;;;;;;5.90;4.80;;;;;;101003.97;;;;108267;1267;22607;-36
2022/06/11 03:44:28;;;;;;;5.60;4.80;;;;;;101006.91;;;;108315;1269;22805;-36
2022/06/11 03:46:56;;;;;;;5.50;4.80;;;;;;101009.01;;;;108293;1269;22538;-36
2022/06/11 03:49:23;;;;;;;5.90;5.00;;;;;;101010.59;;;;108311;1269;22650;-37
2022/06/11 03:51:50;;;;;;;5.80;4.70;;;;;;101014.19;;;;108339;1267;24207;-36
2022/06/11 03:54:18;;;;;;;5.50;4.80;;;;;;101016.69;;;;108343;1267;22549;-37
2022/06/11 03:56:45;;;;;;;5.90;5.30;;;;;;101016.95;;;;108280;1269;22563;-37
2022/06/11 03:59:13;;;;;;;5.50;4.80;;;;;;101016.73;;;;108294;1264;25455;-36
2022/06/11 04:01:40;;;;;;;5.40;4.90;;;;;;101015.75;;;;108300;1274;22760;-37
2022/06/11 04:04:07;;;;;;;5.30;4.80;;;;;;101014.16;;;;108298;1269;22586;-37
2022/06/11 04:06:35;;;;;;;5.50;4.70;;;;;;101014.20;;;;108302;1269;22575;-37
2022/06/11 04:09:02;;;;;;;5.90;5.30;;;;;;101018.97;;;;108305;1273;22641;-37
2022/06/11 04:11:29;;;;;;;6.60;5.00;;;;;;101021.39;;;;108300;1274;22531;-37
2022/06/11 04:13:57;;;;;;;5.20;4.60;;;;;;101021.45;;;;108304;1269;22701;-38
2022/06/11 04:16:24;;;;;;;5.30;4.80;;;;;;101022.02;;;;108316;1269;24323;-38
2022/06/11 04:18:52;;;;;;;6.30;5.00;;;;;;101018.85;;;;108316;1262;22734;-37
2022/06/11 04:21:19;;;;;;;6.10;4.40;;;;;;101017.59;;;;108297;1272;22545;-37
2022/06/11 04:23:46;;;;;;;5.90;4.90;;;;;;101016.71;;;;108260;1269;22774;-37
2022/06/11 04:26:14;;;;;;;6.10;5.00;;;;;;101017.22;;;;108296;1269;25822;-37
2022/06/11 04:28:41;;;;;;;7.30;4.30;;;;;;101015.30;;;;108319;1269;22702;-38
2022/06/11 04:31:09;;;;;;;5.60;4.50;;;;;;101016.77;;;;108284;1269;22601;-37
2022/06/11 04:33:36;;;;;;;5.50;4.50;;;;;;101021.14;;;;108290;1269;25355;-38
2022/06/11 04:36:04;;;;;;;6.10;4.50;;;;;;101023.95;;;;108312;1262;25217;-37
2022/06/11 04:38:31;;;;;;;5.80;4.60;;;;;;101025.45;;;;108311;1267;22980;-37
2022/06/11 04:40:58;;;;;;;5.40;4.30;;;;;;101028.21;;;;108321;1266;22601;-37
2022/06/11 04:43:26;;;;;;;5.00;4.20;;;;;;101027.02;;;;108290;1264;22969;-37
2022/06/11 04:45:53;;;;;;;5.90;4.00;;;;;;101027.36;;;;108280;1269;22935;-37
2022/06/11 04:48:20;;;;;;;6.50;4.10;;;;;;101028.73;;;;108303;1269;22644;-37
2022/06/11 04:50:48;;;;;;;6.30;4.30;;;;;;101030.11;;;;108292;1269;23790;-38
2022/06/11 04:53:16;;;;;;;6.10;4.20;;;;;;101029.51;;;;108304;1262;24878;-38
2022/06/11 04:55:43;;;;;;;6.30;4.30;;;;;;101025.25;;;;108304;1267;22654;-37
2022/06/11 04:58:10;;;;;;;5.20;4.20;;;;;;101027.15;;;;108317;1267;24339;-37
2022/06/11 05:00:38;;;;;;;6.00;4.20;;;;;;101028.34;;;;108275;1264;25897;-37
2022/06/11 05:03:05;;;;;;;5.90;4.30;;;;;;101029.88;;;;108323;1274;24318;-37
2022/06/11 05:05:33;;;;;;;6.90;4.30;;;;;;101030.54;;;;108290;1264;22543;-37
2022/06/11 05:08:01;;;;;;;6.40;3.80;;;;;;101032.56;;;;108312;1269;22545;-37
2022/06/11 05:10:28;;;;;;;4.80;3.50;;;;;;101035.21;;;;108304;1267;22547;-37
2022/06/11 05:12:56;;;;;;;4.80;3.40;;;;;;101034.66;;;;108323;1266;22533;-37
2022/06/11 05:15:23;;;;;;;4.80;3.70;;;;;;101032.45;;;;108290;1269;22598;-37
2022/06/11 05:17:50;;;;;;;4.80;3.80;;;;;;101031.72;;;;108269;1270;22533;-37
2022/06/11 05:20:18;;;;;;;5.10;3.50;;;;;;101035.73;;;;108313;1262;22840;-38
2022/06/11 05:22:46;;;;;;;5.00;3.50;;;;;;101033.48;;;;108268;1267;22561;-38
2022/06/11 05:25:13;;;;;;;5.00;3.40;;;;;;101034.81;;;;108281;1269;22554;-38
2022/06/11 05:27:42;;;;;;;5.70;3.90;;;;;;101040.27;;;;108292;1267;24196;-37
2022/06/11 05:30:09;;;;;;;4.40;3.10;;;;;;101041.12;;;;108276;1269;24151;-38
2022/06/11 05:32:37;;;;;;;4.40;3.10;;;;;;101042.39;;;;108324;1269;23103;-38
2022/06/11 05:35:05;;;;;;;5.50;3.40;;;;;;101039.76;;;;108292;1268;23864;-38
2022/06/11 05:37:32;;;;;;;4.70;3.20;;;;;;101040.73;;;;108321;1269;22872;-38
2022/06/11 05:40:00;;;;;;;5.10;3.10;;;;;;101042.23;;;;108320;1269;23745;-38
2022/06/11 05:42:27;;;;;;;4.40;2.80;;;;;;101045.04;;;;108283;1269;22555;-38
2022/06/11 05:44:55;;;;;;;4.80;3.20;;;;;;101047.11;;;;108314;1269;22540;-38
2022/06/11 05:47:22;;;;;;;4.50;3.20;;;;;;101050.91;;;;108313;1269;24338;-37
2022/06/11 05:49:49;;;;;;;4.70;3.20;;;;;;101054.34;;;;108274;1264;22811;-38
2022/06/11 05:52:17;;;;;;;4.50;3.10;;;;;;101055.90;;;;108312;1269;22540;-38
2022/06/11 05:54:45;;;;;;;4.20;3.10;;;;;;101056.36;;;;108297;1269;22680;-38
2022/06/11 05:57:13;;;;;;;4.60;3.30;;;;;;101060.88;;;;108294;1272;22547;-38
2022/06/11 05:59:40;;;;;;;4.20;2.60;;;;;;101062.73;;;;108290;1264;22913;-38
2022/06/11 06:02:10;;;;;;;4.90;3.10;;;;;;101063.88;;;;108291;1269;22527;-38
2022/06/11 06:04:37;;;;;;;4.40;2.90;;;;;;101063.65;;;;108321;1274;22615;-38
2022/06/11 06:07:05;;;;;;;4.20;2.70;;;;;;101065.28;;;;108296;1262;22519;-38
2022/06/11 06:09:32;;;;;;;4.30;2.50;;;;;;101062.80;;;;108069;1262;313393;-38
2022/06/11 06:11:59;;;;;;;4.40;2.70;;;;;;101067.70;;;;108283;1262;23017;-38
2022/06/11 06:14:27;;;;;;;4.70;2.80;;;;;;101070.63;;;;108312;1269;22924;-38
2022/06/11 06:16:54;;;;;;;4.70;2.80;;;;;;101071.30;;;;108303;1262;22555;-38
2022/06/11 06:19:21;;;;;;;3.80;2.50;;;;;;101077.20;;;;108275;1269;22574;-37
2022/06/11 06:21:49;;;;;;;3.80;2.40;;;;;;101079.83;;;;108288;1269;22562;-37
2022/06/11 06:24:16;;;;;;;3.70;2.50;;;;;;101083.22;;;;108301;1269;22583;-37
2022/06/11 06:26:44;;;;;;;4.40;2.60;;;;;;101080.09;;;;108328;1269;22606;-37
2022/06/11 06:29:11;;;;;;;4.30;2.60;;;;;;101080.25;;;;108301;1268;25374;-37
2022/06/11 06:31:38;;;;;;;4.40;2.60;;;;;;101078.63;;;;108301;1269;22560;-37
2022/06/11 06:34:06;;;;;;;4.10;2.40;;;;;;101078.65;;;;108124;1271;22540;-37
2022/06/11 06:36:33;;;;;;;5.00;2.60;;;;;;101080.13;;;;108293;1274;22543;-38
2022/06/11 06:39:01;;;;;;;4.10;2.50;;;;;;101080.30;;;;108301;1269;23936;-37
2022/06/11 06:41:28;;;;;;;4.00;2.60;;;;;;101083.09;;;;108294;1269;22569;-37
2022/06/11 06:43:55;;;;;;;3.70;2.40;;;;;;101077.73;;;;108296;1269;23927;-38
2022/06/11 06:46:23;;;;;;;6.00;2.80;;;;;;101080.56;;;;108132;1264;22544;-38
2022/06/11 06:48:50;;;;;;;5.60;2.80;;;;;;101079.83;;;;108318;1269;25214;-37
2022/06/11 06:51:18;;;;;;;4.90;2.60;;;;;;101085.29;;;;108311;1274;23924;-37
2022/06/11 06:53:46;;;;;;;4.10;2.50;;;;;;101084.29;;;;108284;1269;22840;-36
2022/06/11 06:56:13;;;;;;;4.00;2.50;;;;;;101089.55;;;;108286;1269;22486;-37
2022/06/11 06:58:41;;;;;;;4.60;3.10;;;;;;101089.18;;;;108318;1269;22542;-37
2022/06/11 07:01:08;;;;;;;6.50;3.70;;;;;;101088.45;;;;108305;1269;22568;-37
2022/06/11 07:03:35;;;;;;;16.20;14.10;;;;;;101091.94;;;;108290;1269;23030;-37
2022/06/11 07:06:03;;;;;;;30.30;27.00;;;;;;101092.67;;;;108288;1269;22564;-37
2022/06/11 07:08:30;;;;;;;43.50;39.00;;;;;;101090.14;;;;108285;1267;22531;-37
2022/06/11 07:10:58;;;;;;;51.60;46.30;;;;;;101094.69;;;;108293;1262;25205;-37
2022/06/11 07:13:25;;;;;;;52.10;46.80;;;;;;101096.97;;;;108284;1264;25846;-36
2022/06/11 07:15:53;;;;;;;51.10;45.70;;;;;;101099.36;;;;108264;1269;23131;-37
2022/06/11 07:18:20;;;;;;;51.90;46.70;;;;;;101102.11;;;;108315;1269;22546;-37
2022/06/11 07:20:47;;;;;;;49.60;44.50;;;;;;101103.08;;;;108282;1268;24191;-39
2022/06/11 07:23:15;;;;;;;46.80;41.90;;;;;;101104.00;;;;108131;1271;22545;-38
2022/06/11 07:25:42;;;;;;;42.10;37.70;;;;;;101101.96;;;;108303;1269;22546;-38
2022/06/11 07:28:10;;;;;;;39.30;35.30;;;;;;101103.67;;;;108291;1267;24048;-39
2022/06/11 07:30:37;;;;;;;37.50;33.70;;;;;;101104.44;;;;108316;1269;24038;-39
2022/06/11 07:33:05;;;;;;;36.50;32.80;;;;;;101102.78;;;;108313;1269;22543;-39
2022/06/11 07:35:32;;;;;;;34.30;30.70;;;;;;101105.53;;;;108297;1269;25998;-38
2022/06/11 07:37:59;;;;;;;32.60;29.40;;;;;;101103.39;;;;108308;1269;23867;-39
2022/06/11 07:40:27;;;;;;;31.70;28.40;;;;;;101103.22;;;;108280;1269;25368;-39
2022/06/11 07:42:54;;;;;;;30.00;26.70;;;;;;101102.06;;;;108304;1269;23833;-39
2022/06/11 07:45:22;;;;;;;31.00;27.70;;;;;;101102.75;;;;108282;1262;23921;-39
2022/06/11 07:47:55;;;;;;;27.60;24.70;;;;;;101101.52;;;;108297;1262;22773;-39
2022/06/11 07:50:23;;;;;;;21.80;19.50;;;;;;101099.73;;;;108212;1268;22660;-41
2022/06/11 07:52:51;;;;;;;20.80;18.60;;;;;;101102.60;;;;108275;1270;25365;-37
2022/06/11 07:55:18;;;;;;;17.80;15.80;;;;;;101106.67;;;;108298;1268;22997;-40
2022/06/11 07:57:46;;;;;;;16.50;14.80;;;;;;101103.30;;;;108295;1268;22532;-40
2022/06/11 08:00:13;;;;;;;16.60;14.50;;;;;;101102.55;;;;108332;1271;23042;-40
2022/06/11 08:02:40;;;;;;;14.90;13.40;;;;;;101103.10;;;;108353;1265;22547;-40
2022/06/11 08:05:08;;;;;;;14.60;12.80;;;;;;101096.02;;;;108304;1268;24271;-41
2022/06/11 08:07:35;;;;;;;12.90;10.70;;;;;;101095.13;;;;108305;1265;22673;-42
2022/06/11 08:10:02;;;;;;;11.90;9.70;;;;;;101099.61;;;;108252;1269;24260;-40
2022/06/11 08:12:30;;;;;;;11.20;8.80;;;;;;101099.41;;;;108281;1269;22576;-39
2022/06/11 08:14:57;;;;;;;8.30;6.70;;;;;;101098.23;;;;108328;1262;22898;-40
2022/06/11 08:17:25;;;;;;;8.30;6.00;;;;;;101098.39;;;;108406;1266;22530;-39
2022/06/11 08:19:52;;;;;;;7.00;5.30;;;;;;101092.52;;;;108451;1259;24250;-38
2022/06/11 08:22:20;;;;;;;7.80;5.10;;;;;;101089.52;;;;108411;1265;22604;-39
2022/06/11 08:24:47;;;;;;;10.70;5.30;;;;;;101090.06;;;;108340;1268;22891;-38
2022/06/11 08:27:14;;;;;;;7.20;4.70;;;;;;101090.41;;;;108339;1262;25262;-38
2022/06/11 08:29:42;;;;;;;7.40;4.10;;;;;;101092.51;;;;108300;1268;22831;-39
2022/06/11 08:32:10;;;;;;;7.00;4.00;;;;;;101089.85;;;;108359;1269;25218;-39
2022/06/11 08:34:38;;;;;;;7.80;3.40;;;;;;101086.38;;;;108431;1268;22624;-36
2022/06/11 08:37:05;;;;;;;4.90;3.40;;;;;;101088.03;;;;108420;1268;22592;-39
2022/06/11 08:39:32;;;;;;;5.60;3.40;;;;;;101089.85;;;;108378;1268;25352;-39
2022/06/11 08:42:00;;;;;;;5.90;3.50;;;;;;101087.96;;;;108408;1262;23059;-36
2022/06/11 08:44:27;;;;;;;6.80;3.20;;;;;;101083.61;;;;108391;1268;22541;-38
2022/06/11 08:46:55;;;;;;;5.00;3.50;;;;;;101079.08;;;;108409;1270;22544;-37
2022/06/11 08:49:22;;;;;;;6.50;3.10;;;;;;101074.41;;;;108377;1268;22865;-37
2022/06/11 08:51:49;;;;;;;6.00;3.20;;;;;;101076.53;;;;108369;1268;22735;-37
2022/06/11 08:54:17;;;;;;;5.30;3.10;;;;;;101074.27;;;;108210;1262;22728;-38
2022/06/11 08:56:44;;;;;;;6.70;3.00;;;;;;101072.48;;;;108273;1261;22780;-39
2022/06/11 08:59:12;;;;;;;6.50;3.20;;;;;;101073.02;;;;108263;1268;22530;-40
2022/06/11 09:01:39;;;;;;;6.00;3.00;;;;;;101064.35;;;;108286;1262;22836;-39
2022/06/11 09:04:06;;;;;;;5.80;2.80;;;;;;101065.98;;;;108262;1274;22556;-38
2022/06/11 09:06:34;;;;;;;5.00;2.70;;;;;;101067.70;;;;108265;1261;22901;-38
2022/06/11 09:09:01;;;;;;;5.80;3.10;;;;;;101066.86;;;;108254;1265;22538;-38
2022/06/11 09:11:28;;;;;;;5.40;2.60;;;;;;101063.20;;;;108305;1272;23961;-39
2022/06/11 09:13:56;;;;;;;5.10;2.50;;;;;;101064.64;;;;108259;1261;22638;-39
2022/06/11 09:16:23;;;;;;;5.70;2.50;;;;;;101061.41;;;;108267;1269;23075;-41
2022/06/11 09:18:50;;;;;;;6.20;2.50;;;;;;101057.64;;;;108294;1268;22583;-38
2022/06/11 09:21:18;;;;;;;5.60;3.00;;;;;;101053.96;;;;108295;1268;23647;-39
2022/06/11 09:23:45;;;;;;;5.50;2.70;;;;;;101049.43;;;;108294;1261;22852;-39
2022/06/11 09:26:13;;;;;;;4.80;2.70;;;;;;101049.84;;;;108242;1269;25363;-39
2022/06/11 09:28:40;;;;;;;4.90;2.30;;;;;;101049.68;;;;108293;1272;22772;-39
2022/06/11 09:31:07;;;;;;;5.20;2.50;;;;;;101047.02;;;;108278;1261;22920;-37
2022/06/11 09:33:37;;;;;;;4.40;2.00;;;;;;101038.16;;;;108107;1267;78181;-38
2022/06/11 09:36:04;;;;;;;3.60;2.10;;;;;;101037.95;;;;108243;1269;24180;-38
2022/06/11 09:38:31;;;;;;;4.70;2.00;;;;;;101035.26;;;;108180;1269;22545;-39
2022/06/11 09:40:59;;;;;;;4.40;2.00;;;;;;101030.95;;;;108218;1274;23913;-40
2022/06/11 09:43:26;;;;;;;4.20;2.00;;;;;;101027.01;;;;108137;1271;22571;-38
2022/06/11 09:45:53;;;;;;;5.60;1.80;;;;;;101031.50;;;;108139;1270;30295;-38
2022/06/11 09:48:21;;;;;;;4.10;1.90;;;;;;101036.28;;;;107790;1264;33231;-36
2022/06/11 09:50:48;;;;;;;4.20;1.60;;;;;;101037.64;;;;107824;1264;33335;-36
2022/06/11 09:53:15;;;;;;;3.70;1.50;;;;;;101043.27;;;;107933;1269;33489;-37
2022/06/11 09:55:43;;;;;;;3.10;1.40;;;;;;101047.56;;;;107759;1271;34160;-39
2022/06/11 09:58:10;;;;;;;3.20;1.40;;;;;;101048.55;;;;107976;1270;32938;-38
2022/06/11 10:00:38;;;;;;;3.80;1.40;;;;;;101044.69;;;;107998;1269;33531;-38
2022/06/11 10:03:05;;;;;;;4.10;1.70;;;;;;101046.23;;;;107960;1262;33453;-38
2022/06/11 10:05:33;;;;;;;3.50;1.70;;;;;;101046.61;;;;107796;1271;34023;-38
2022/06/11 10:08:00;;;;;;;2.90;1.40;;;;;;101045.98;;;;107988;1269;34696;-38
2022/06/11 10:10:27;;;;;;;3.50;1.60;;;;;;101043.70;;;;107850;1270;33511;-39
2022/06/11 10:12:55;;;;;;;3.10;1.40;;;;;;101044.93;;;;107848;1270;33341;-38
2022/06/11 10:15:23;;;;;;;3.90;1.50;;;;;;101046.23;;;;107989;1270;33776;-37
2022/06/11 10:17:51;;;;;;;3.00;1.40;;;;;;101038.45;;;;107906;1262;32993;-38
2022/06/11 10:20:18;;;;;;;4.10;1.60;;;;;;101038.95;;;;107860;1269;33287;-37
2022/06/11 10:22:45;;;;;;;3.60;1.70;;;;;;101037.89;;;;107817;1270;33175;-38
2022/06/11 10:25:13;;;;;;;3.80;1.70;;;;;;101037.34;;;;107841;1270;33980;-38
2022/06/11 10:27:40;;;;;;;3.50;1.70;;;;;;101034.54;;;;107842;1270;33435;-38
2022/06/11 10:30:07;;;;;;;4.10;1.60;;;;;;101032.83;;;;107830;1268;33429;-38
2022/06/11 10:32:35;;;;;;;3.10;1.50;;;;;;101030.38;;;;108029;1262;33791;-38
2022/06/11 10:35:03;;;;;;;3.40;1.50;;;;;;101029.80;;;;107870;1270;32897;-38
2022/06/11 10:37:31;;;;;;;2.80;1.40;;;;;;101032.75;;;;108077;1268;33399;-38
2022/06/11 10:39:58;;;;;;;3.50;1.40;;;;;;101034.38;;;;108036;1270;34040;-38
2022/06/11 10:42:26;;;;;;;3.00;1.50;;;;;;101030.47;;;;108025;1270;33316;-37
2022/06/11 10:44:53;;;;;;;3.00;1.40;;;;;;101020.11;;;;107848;1270;33401;-37
2022/06/11 10:47:21;;;;;;;3.10;1.50;;;;;;101022.69;;;;108027;1266;33454;-37
2022/06/11 10:49:48;;;;;;;3.40;1.50;;;;;;101025.73;;;;108014;1270;34295;-37
2022/06/11 10:52:15;;;;;;;3.40;1.50;;;;;;101023.58;;;;108006;1269;33491;-37
2022/06/11 10:54:43;;;;;;;2.70;1.30;;;;;;101026.77;;;;107806;1270;34592;-37
2022/06/11 10:57:10;;;;;;;3.40;1.50;;;;;;101024.07;;;;107855;1270;33462;-37
2022/06/11 10:59:37;;;;;;;3.60;1.30;;;;;;101021.23;;;;107843;1267;33904;-37
2022/06/11 11:02:05;;;;;;;3.00;1.30;;;;;;101020.63;;;;107850;1263;33155;-37
2022/06/11 11:04:32;;;;;;;3.50;1.40;;;;;;101019.86;;;;108020;1270;33401;-37
2022/06/11 11:07:00;;;;;;;2.80;1.30;;;;;;101014.52;;;;108031;1270;33466;-38
2022/06/11 11:09:27;;;;;;;3.20;1.30;;;;;;101013.41;;;;108019;1269;33422;-37
2022/06/11 11:11:55;;;;;;;3.00;1.30;;;;;;101014.62;;;;108009;1266;33656;-37
2022/06/11 11:14:22;;;;;;;3.50;1.40;;;;;;101010.27;;;;108043;1270;33277;-37
2022/06/11 11:16:50;;;;;;;3.10;1.40;;;;;;101008.55;;;;108026;1270;33287;-38
2022/06/11 11:19:17;;;;;;;3.70;1.70;;;;;;101003.41;;;;108028;1270;33496;-38
2022/06/11 11:21:44;;;;;;;3.60;1.70;;;;;;101005.05;;;;108035;1267;33493;-38
2022/06/11 11:24:12;;;;;;;3.20;1.40;;;;;;101003.70;;;;108021;1270;33619;-38
2022/06/11 11:26:39;;;;;;;3.10;1.40;;;;;;100997.91;;;;108017;1267;33940;-38
2022/06/11 11:29:08;;;;;;;3.00;1.60;;;;;;100995.70;;;;108052;1270;32963;-38
2022/06/11 11:31:36;;;;;;;3.20;1.60;;;;;;100994.91;;;;107824;1270;33790;-37
2022/06/11 11:34:03;;;;;;;3.20;1.40;;;;;;101002.77;;;;108050;1270;33997;-37
2022/06/11 11:36:31;;;;;;;2.60;1.30;;;;;;100996.67;;;;108027;1267;33281;-37
2022/06/11 11:38:58;;;;;;;3.40;1.60;;;;;;100995.47;;;;108050;1270;33399;-37
2022/06/11 11:41:26;;;;;;;3.00;1.50;;;;;;100992.77;;;;108002;1267;33361;-38
2022/06/11 11:43:53;;;;;;;2.90;1.40;;;;;;100989.38;;;;108016;1270;33198;-38
2022/06/11 11:46:20;;;;;;;2.50;1.30;;;;;;100991.33;;;;107996;1270;33696;-37
2022/06/11 11:48:48;;;;;;;2.80;1.40;;;;;;100987.37;;;;107827;1270;33045;-38
2022/06/11 11:51:16;;;;;;;3.40;1.60;;;;;;100987.17;;;;107839;1270;33449;-38
2022/06/11 11:53:43;;;;;;;2.90;1.30;;;;;;100990.64;;;;107842;1270;33000;-38
2022/06/11 11:56:11;;;;;;;3.10;1.30;;;;;;100987.27;;;;108013;1270;33595;-39
2022/06/11 11:58:38;;;;;;;3.00;1.30;;;;;;100986.54;;;;108045;1269;33889;-39
2022/06/11 12:01:05;;;;;;;2.80;1.40;;;;;;100987.15;;;;108021;1269;33673;-39
2022/06/11 12:03:34;;;;;;;2.90;1.50;;;;;;100988.45;;;;107831;1267;33470;-39
2022/06/11 12:06:02;;;;;;;3.30;1.60;;;;;;100990.00;;;;108038;1265;33452;-39
2022/06/11 12:08:29;;;;;;;2.70;1.30;;;;;;100986.63;;;;108025;1270;33381;-39
2022/06/11 12:10:58;;;;;;;2.80;1.40;;;;;;100987.02;;;;108053;1269;33265;-39
2022/06/11 12:13:25;;;;;;;2.90;1.30;;;;;;100986.37;;;;108063;1270;33583;-38
2022/06/11 12:15:53;;;;;;;2.80;1.30;;;;;;100983.67;;;;107861;1270;33603;-39
2022/06/11 12:18:21;;;;;;;2.90;1.40;;;;;;100982.39;;;;107843;1266;33582;-39
2022/06/11 12:20:49;;;;;;;2.80;1.30;;;;;;100989.66;;;;108029;1267;33845;-38
2022/06/11 12:23:16;;;;;;;3.00;1.30;;;;;;100980.30;;;;107846;1270;34052;-38
2022/06/11 12:25:44;;;;;;;3.20;1.50;;;;;;100986.61;;;;108034;1269;33357;-39
2022/06/11 12:28:11;;;;;;;2.50;1.20;;;;;;100983.75;;;;108025;1269;34000;-38
2022/06/11 12:30:39;;;;;;;2.80;1.20;;;;;;100985.84;;;;108035;1269;33555;-38
2022/06/11 12:33:06;;;;;;;3.60;1.20;;;;;;100985.76;;;;108036;1269;32950;-37
2022/06/11 12:35:33;;;;;;;3.00;1.30;;;;;;100987.80;;;;108018;1261;33169;-37
2022/06/11 12:38:01;;;;;;;2.90;1.30;;;;;;100987.13;;;;108025;1270;33676;-38
2022/06/11 12:40:28;;;;;;;2.50;1.20;;;;;;100987.49;;;;108024;1267;33777;-38
2022/06/11 12:42:56;;;;;;;4.40;1.30;;;;;;100987.98;;;;107901;1262;33499;-38
2022/06/11 12:45:23;;;;;;;2.80;1.30;;;;;;100988.94;;;;108041;1270;34134;-38